sensor_id;sensor_type;location;lat;lon;timestamp;pressure;altitude;pressure_sealevel;temperature;humidity
10652;BME280;5374;42.742;23.266;2022-11-25T00:02:28;95240.69;;;6.76;90.27
10652;BME280;5374;42.742;23.266;2022-11-25T00:05:17;95243.88;;;6.67;90.92
10652;BME280;5374;42.742;23.266;2022-11-25T00:08:04;95213.03;;;6.44;91.11
10652;BME280;5374;42.742;23.266;2022-11-25T00:10:51;95254.53;;;6.60;91.92
10652;BME280;5374;42.742;23.266;2022-11-25T00:13:39;95253.16;;;6.69;90.20
10652;BME280;5374;42.742;23.266;2022-11-25T00:16:26;95255.94;;;6.74;89.90
10652;BME280;5374;42.742;23.266;2022-11-25T00:19:14;95259.16;;;6.76;89.19
10652;BME280;5374;42.742;23.266;2022-11-25T00:22:02;95259.25;;;6.70;88.87
10652;BME280;5374;42.742;23.266;2022-11-25T00:24:49;95266.25;;;6.76;87.83
10652;BME280;5374;42.742;23.266;2022-11-25T00:27:36;95250.06;;;6.61;87.72
10652;BME280;5374;42.742;23.266;2022-11-25T00:30:24;95254.78;;;6.70;87.35
10652;BME280;5374;42.742;23.266;2022-11-25T00:33:11;95244.34;;;6.64;87.65
10652;BME280;5374;42.742;23.266;2022-11-25T00:35:59;95256.50;;;6.65;88.14
10652;BME280;5374;42.742;23.266;2022-11-25T00:38:52;95273.13;;;6.65;88.01
10652;BME280;5374;42.742;23.266;2022-11-25T00:41:40;95267.72;;;6.60;88.36
10652;BME280;5374;42.742;23.266;2022-11-25T00:44:44;95260.41;;;6.50;89.33
10652;BME280;5374;42.742;23.266;2022-11-25T00:47:31;95263.13;;;6.56;89.65
10652;BME280;5374;42.742;23.266;2022-11-25T00:50:19;95268.75;;;6.59;89.15
10652;BME280;5374;42.742;23.266;2022-11-25T00:53:06;95275.28;;;6.57;89.97
10652;BME280;5374;42.742;23.266;2022-11-25T00:56:00;95268.66;;;6.54;90.63
10652;BME280;5374;42.742;23.266;2022-11-25T00:58:59;95268.88;;;6.53;90.77
10652;BME280;5374;42.742;23.266;2022-11-25T01:01:47;95278.63;;;6.52;90.10
10652;BME280;5374;42.742;23.266;2022-11-25T01:04:34;95275.06;;;6.58;89.78
10652;BME280;5374;42.742;23.266;2022-11-25T01:07:21;95273.44;;;6.57;89.59
10652;BME280;5374;42.742;23.266;2022-11-25T01:10:08;95283.69;;;6.65;89.09
10652;BME280;5374;42.742;23.266;2022-11-25T01:12:57;95276.13;;;6.69;88.16
10652;BME280;5374;42.742;23.266;2022-11-25T01:15:44;95276.34;;;6.67;88.40
10652;BME280;5374;42.742;23.266;2022-11-25T01:18:32;95276.22;;;6.74;87.88
10652;BME280;5374;42.742;23.266;2022-11-25T01:21:21;95284.72;;;6.76;87.62
10652;BME280;5374;42.742;23.266;2022-11-25T01:24:09;95285.28;;;6.78;86.92
10652;BME280;5374;42.742;23.266;2022-11-25T01:26:57;95285.63;;;6.81;85.89
10652;BME280;5374;42.742;23.266;2022-11-25T01:29:46;95270.59;;;6.82;86.11
10652;BME280;5374;42.742;23.266;2022-11-25T01:32:33;95284.50;;;6.89;85.70
10652;BME280;5374;42.742;23.266;2022-11-25T01:35:20;95267.03;;;6.88;85.44
10652;BME280;5374;42.742;23.266;2022-11-25T01:38:07;95272.22;;;6.95;85.05
10652;BME280;5374;42.742;23.266;2022-11-25T01:40:54;95268.88;;;6.99;84.73
10652;BME280;5374;42.742;23.266;2022-11-25T01:43:41;95254.19;;;6.92;83.22
10652;BME280;5374;42.742;23.266;2022-11-25T01:46:36;95263.03;;;6.97;83.38
10652;BME280;5374;42.742;23.266;2022-11-25T01:49:32;95247.06;;;6.92;82.75
10652;BME280;5374;42.742;23.266;2022-11-25T01:52:22;95249.38;;;7.00;82.63
10652;BME280;5374;42.742;23.266;2022-11-25T01:55:14;95238.47;;;6.97;82.17
10652;BME280;5374;42.742;23.266;2022-11-25T01:58:05;95247.28;;;7.02;80.81
10652;BME280;5374;42.742;23.266;2022-11-25T02:00:53;95212.31;;;6.83;80.58
10652;BME280;5374;42.742;23.266;2022-11-25T02:03:45;95249.22;;;7.07;80.48
10652;BME280;5374;42.742;23.266;2022-11-25T02:06:36;95254.84;;;7.10;80.19
10652;BME280;5374;42.742;23.266;2022-11-25T02:09:25;95238.81;;;7.00;80.26
10652;BME280;5374;42.742;23.266;2022-11-25T02:12:13;95258.19;;;7.06;80.02
10652;BME280;5374;42.742;23.266;2022-11-25T02:15:03;95240.31;;;6.84;80.18
10652;BME280;5374;42.742;23.266;2022-11-25T02:17:50;95268.88;;;6.99;80.37
10652;BME280;5374;42.742;23.266;2022-11-25T02:20:40;95250.75;;;6.91;80.13
10652;BME280;5374;42.742;23.266;2022-11-25T02:23:32;95257.94;;;7.07;79.27
10652;BME280;5374;42.742;23.266;2022-11-25T02:26:23;95268.63;;;7.01;79.54
10652;BME280;5374;42.742;23.266;2022-11-25T02:29:11;95263.16;;;6.91;79.94
10652;BME280;5374;42.742;23.266;2022-11-25T02:31:58;95266.13;;;6.94;79.92
10652;BME280;5374;42.742;23.266;2022-11-25T02:34:46;95260.03;;;6.94;79.94
10652;BME280;5374;42.742;23.266;2022-11-25T02:37:33;95242.38;;;6.82;79.98
10652;BME280;5374;42.742;23.266;2022-11-25T02:40:21;95251.09;;;6.83;80.01
10652;BME280;5374;42.742;23.266;2022-11-25T02:43:10;95255.56;;;6.82;79.94
10652;BME280;5374;42.742;23.266;2022-11-25T02:45:59;95241.13;;;6.73;80.32
10652;BME280;5374;42.742;23.266;2022-11-25T02:48:46;95257.53;;;6.75;80.76
10652;BME280;5374;42.742;23.266;2022-11-25T02:51:34;95255.13;;;6.74;80.36
10652;BME280;5374;42.742;23.266;2022-11-25T02:54:21;95258.78;;;6.73;80.65
10652;BME280;5374;42.742;23.266;2022-11-25T02:57:08;95261.88;;;6.58;81.53
10652;BME280;5374;42.742;23.266;2022-11-25T02:59:56;95260.25;;;6.57;82.10
10652;BME280;5374;42.742;23.266;2022-11-25T03:02:43;95266.13;;;6.59;82.17
10652;BME280;5374;42.742;23.266;2022-11-25T03:05:31;95253.88;;;6.53;82.30
10652;BME280;5374;42.742;23.266;2022-11-25T03:08:18;95266.34;;;6.58;83.20
10652;BME280;5374;42.742;23.266;2022-11-25T03:11:05;95275.63;;;6.60;83.26
10652;BME280;5374;42.742;23.266;2022-11-25T03:13:53;95279.31;;;6.59;83.65
10652;BME280;5374;42.742;23.266;2022-11-25T03:16:41;95273.44;;;6.57;83.91
10652;BME280;5374;42.742;23.266;2022-11-25T03:19:29;95285.03;;;6.56;84.46
10652;BME280;5374;42.742;23.266;2022-11-25T03:22:16;95278.97;;;6.44;85.65
10652;BME280;5374;42.742;23.266;2022-11-25T03:25:04;95281.00;;;6.42;86.27
10652;BME280;5374;42.742;23.266;2022-11-25T03:27:51;95282.84;;;6.41;86.74
10652;BME280;5374;42.742;23.266;2022-11-25T03:30:38;95285.00;;;6.33;87.98
10652;BME280;5374;42.742;23.266;2022-11-25T03:33:27;95290.28;;;6.33;88.74
10652;BME280;5374;42.742;23.266;2022-11-25T03:36:14;95299.91;;;6.27;89.64
10652;BME280;5374;42.742;23.266;2022-11-25T03:39:01;95289.31;;;6.15;90.19
10652;BME280;5374;42.742;23.266;2022-11-25T03:41:48;95300.59;;;6.23;90.57
10652;BME280;5374;42.742;23.266;2022-11-25T03:44:35;95265.09;;;5.95;91.64
10652;BME280;5374;42.742;23.266;2022-11-25T03:47:22;95309.25;;;6.11;93.21
10652;BME280;5374;42.742;23.266;2022-11-25T03:50:13;95308.22;;;6.12;94.02
10652;BME280;5374;42.742;23.266;2022-11-25T03:53:00;95297.22;;;6.04;95.13
10652;BME280;5374;42.742;23.266;2022-11-25T03:55:47;95313.59;;;6.06;95.08
10652;BME280;5374;42.742;23.266;2022-11-25T03:58:34;95302.94;;;6.01;94.95
10652;BME280;5374;42.742;23.266;2022-11-25T04:01:21;95320.72;;;6.05;95.38
10652;BME280;5374;42.742;23.266;2022-11-25T04:04:09;95325.69;;;5.95;97.37
10652;BME280;5374;42.742;23.266;2022-11-25T04:06:57;95308.06;;;5.77;99.44
10652;BME280;5374;42.742;23.266;2022-11-25T04:09:45;95328.28;;;5.83;100.00
10652;BME280;5374;42.742;23.266;2022-11-25T04:12:32;95339.03;;;5.82;100.00
10652;BME280;5374;42.742;23.266;2022-11-25T04:15:34;95333.75;;;5.82;100.00
10652;BME280;5374;42.742;23.266;2022-11-25T04:18:21;95344.53;;;5.80;100.00
10652;BME280;5374;42.742;23.266;2022-11-25T04:21:08;95341.88;;;5.80;100.00
10652;BME280;5374;42.742;23.266;2022-11-25T04:23:57;95340.13;;;5.74;100.00
10652;BME280;5374;42.742;23.266;2022-11-25T04:26:44;95339.75;;;5.71;100.00
10652;BME280;5374;42.742;23.266;2022-11-25T04:29:31;95342.19;;;5.72;100.00
10652;BME280;5374;42.742;23.266;2022-11-25T04:32:18;95335.63;;;5.63;100.00
10652;BME280;5374;42.742;23.266;2022-11-25T04:35:06;95351.97;;;5.65;100.00
10652;BME280;5374;42.742;23.266;2022-11-25T04:37:53;95349.13;;;5.67;100.00
10652;BME280;5374;42.742;23.266;2022-11-25T04:40:41;95358.06;;;5.66;100.00
10652;BME280;5374;42.742;23.266;2022-11-25T04:43:28;95363.41;;;5.59;100.00
10652;BME280;5374;42.742;23.266;2022-11-25T04:46:16;95355.75;;;5.58;100.00
10652;BME280;5374;42.742;23.266;2022-11-25T04:49:05;95370.41;;;5.65;100.00
10652;BME280;5374;42.742;23.266;2022-11-25T04:51:53;95366.41;;;5.63;100.00
10652;BME280;5374;42.742;23.266;2022-11-25T04:54:40;95376.16;;;5.62;100.00
10652;BME280;5374;42.742;23.266;2022-11-25T04:57:28;95379.22;;;5.59;100.00
10652;BME280;5374;42.742;23.266;2022-11-25T05:00:16;95386.53;;;5.57;100.00
10652;BME280;5374;42.742;23.266;2022-11-25T05:03:04;95380.09;;;5.53;100.00
10652;BME280;5374;42.742;23.266;2022-11-25T05:05:52;95392.19;;;5.61;100.00
10652;BME280;5374;42.742;23.266;2022-11-25T05:08:39;95403.50;;;5.61;100.00
10652;BME280;5374;42.742;23.266;2022-11-25T05:11:26;95408.78;;;5.61;100.00
10652;BME280;5374;42.742;23.266;2022-11-25T05:14:15;95411.78;;;5.65;100.00
10652;BME280;5374;42.742;23.266;2022-11-25T05:17:02;95405.78;;;5.58;100.00
10652;BME280;5374;42.742;23.266;2022-11-25T05:19:50;95412.81;;;5.64;100.00
10652;BME280;5374;42.742;23.266;2022-11-25T05:22:37;95429.47;;;5.76;100.00
10652;BME280;5374;42.742;23.266;2022-11-25T05:25:25;95442.59;;;5.82;98.94
10652;BME280;5374;42.742;23.266;2022-11-25T05:28:12;95449.19;;;5.92;97.72
10652;BME280;5374;42.742;23.266;2022-11-25T05:31:01;95482.44;;;5.93;96.78
10652;BME280;5374;42.742;23.266;2022-11-25T05:33:48;95461.88;;;6.01;96.01
10652;BME280;5374;42.742;23.266;2022-11-25T05:36:35;95459.38;;;6.06;95.45
10652;BME280;5374;42.742;23.266;2022-11-25T05:39:23;95463.97;;;6.11;94.49
10652;BME280;5374;42.742;23.266;2022-11-25T05:42:10;95470.19;;;6.16;94.36
10652;BME280;5374;42.742;23.266;2022-11-25T05:44:57;95475.97;;;6.25;93.27
10652;BME280;5374;42.742;23.266;2022-11-25T05:47:47;95476.47;;;6.34;91.91
10652;BME280;5374;42.742;23.266;2022-11-25T05:50:35;95478.81;;;6.42;90.67
10652;BME280;5374;42.742;23.266;2022-11-25T05:53:22;95480.78;;;6.46;90.17
10652;BME280;5374;42.742;23.266;2022-11-25T05:56:09;95480.94;;;6.51;90.24
10652;BME280;5374;42.742;23.266;2022-11-25T05:58:57;95491.97;;;6.60;89.41
10652;BME280;5374;42.742;23.266;2022-11-25T06:01:44;95487.50;;;6.61;87.86
10652;BME280;5374;42.742;23.266;2022-11-25T06:04:33;95495.09;;;6.69;88.01
10652;BME280;5374;42.742;23.266;2022-11-25T06:07:20;95503.97;;;6.74;87.65
10652;BME280;5374;42.742;23.266;2022-11-25T06:10:08;95502.47;;;6.78;87.13
10652;BME280;5374;42.742;23.266;2022-11-25T06:12:55;95501.81;;;6.83;85.93
10652;BME280;5374;42.742;23.266;2022-11-25T06:15:43;95503.06;;;6.80;86.43
10652;BME280;5374;42.742;23.266;2022-11-25T06:18:31;95515.81;;;6.83;86.42
10652;BME280;5374;42.742;23.266;2022-11-25T06:21:19;95516.03;;;6.82;86.55
10652;BME280;5374;42.742;23.266;2022-11-25T06:24:06;95521.06;;;6.83;86.33
10652;BME280;5374;42.742;23.266;2022-11-25T06:26:53;95518.06;;;6.80;86.38
10652;BME280;5374;42.742;23.266;2022-11-25T06:29:41;95525.78;;;6.81;85.80
10652;BME280;5374;42.742;23.266;2022-11-25T06:32:28;95530.75;;;6.90;85.36
10652;BME280;5374;42.742;23.266;2022-11-25T06:35:15;95541.44;;;6.95;85.21
10652;BME280;5374;42.742;23.266;2022-11-25T06:38:04;95541.13;;;7.03;84.87
10652;BME280;5374;42.742;23.266;2022-11-25T06:40:51;95550.34;;;7.12;84.17
10652;BME280;5374;42.742;23.266;2022-11-25T06:43:38;95552.41;;;7.10;83.79
10652;BME280;5374;42.742;23.266;2022-11-25T06:46:26;95548.06;;;7.15;83.40
10652;BME280;5374;42.742;23.266;2022-11-25T06:49:13;95553.69;;;7.19;84.26
10652;BME280;5374;42.742;23.266;2022-11-25T06:52:00;95530.25;;;7.11;83.86
10652;BME280;5374;42.742;23.266;2022-11-25T06:54:49;95552.44;;;7.22;83.78
10652;BME280;5374;42.742;23.266;2022-11-25T06:57:36;95562.66;;;7.18;83.62
10652;BME280;5374;42.742;23.266;2022-11-25T07:00:24;95548.88;;;7.16;83.55
10652;BME280;5374;42.742;23.266;2022-11-25T07:03:11;95533.09;;;7.09;82.90
10652;BME280;5374;42.742;23.266;2022-11-25T07:05:58;95553.47;;;7.20;82.49
10652;BME280;5374;42.742;23.266;2022-11-25T07:08:46;95558.53;;;7.22;82.67
10652;BME280;5374;42.742;23.266;2022-11-25T07:11:36;95559.66;;;7.26;82.34
10652;BME280;5374;42.742;23.266;2022-11-25T07:14:23;95565.44;;;7.35;81.37
10652;BME280;5374;42.742;23.266;2022-11-25T07:17:11;95549.88;;;7.45;80.89
10652;BME280;5374;42.742;23.266;2022-11-25T07:19:58;95567.19;;;7.52;80.06
10652;BME280;5374;42.742;23.266;2022-11-25T07:22:45;95575.13;;;7.52;79.62
10652;BME280;5374;42.742;23.266;2022-11-25T07:25:32;95569.53;;;7.61;79.04
10652;BME280;5374;42.742;23.266;2022-11-25T07:28:21;95576.28;;;7.68;77.89
10652;BME280;5374;42.742;23.266;2022-11-25T07:31:12;95573.91;;;7.78;77.52
10652;BME280;5374;42.742;23.266;2022-11-25T07:34:02;95574.25;;;7.82;76.46
10652;BME280;5374;42.742;23.266;2022-11-25T07:36:49;95558.28;;;7.88;76.01
10652;BME280;5374;42.742;23.266;2022-11-25T07:39:37;95567.34;;;8.28;75.45
10652;BME280;5374;42.742;23.266;2022-11-25T07:42:24;95570.13;;;8.56;74.61
10652;BME280;5374;42.742;23.266;2022-11-25T07:45:13;95565.31;;;8.81;73.16
10652;BME280;5374;42.742;23.266;2022-11-25T07:48:00;95580.75;;;9.13;71.04
10652;BME280;5374;42.742;23.266;2022-11-25T07:50:47;95572.25;;;9.27;70.09
10652;BME280;5374;42.742;23.266;2022-11-25T07:53:35;95577.63;;;9.44;69.16
10652;BME280;5374;42.742;23.266;2022-11-25T07:56:22;95588.09;;;9.68;69.15
10652;BME280;5374;42.742;23.266;2022-11-25T07:59:12;95588.91;;;9.85;67.49
10652;BME280;5374;42.742;23.266;2022-11-25T08:02:01;95578.63;;;9.88;66.46
10652;BME280;5374;42.742;23.266;2022-11-25T08:04:48;95585.44;;;10.01;65.57
10652;BME280;5374;42.742;23.266;2022-11-25T08:07:35;95586.72;;;9.99;64.61
10652;BME280;5374;42.742;23.266;2022-11-25T08:10:22;95606.81;;;10.11;64.68
10652;BME280;5374;42.742;23.266;2022-11-25T08:13:09;95598.06;;;10.11;64.30
10652;BME280;5374;42.742;23.266;2022-11-25T08:15:58;95614.78;;;10.28;64.04
10652;BME280;5374;42.742;23.266;2022-11-25T08:18:47;95597.59;;;10.31;63.68
10652;BME280;5374;42.742;23.266;2022-11-25T08:21:34;95598.72;;;10.35;63.56
10652;BME280;5374;42.742;23.266;2022-11-25T08:24:21;95616.38;;;10.46;62.27
10652;BME280;5374;42.742;23.266;2022-11-25T08:27:08;95603.00;;;10.41;61.35
10652;BME280;5374;42.742;23.266;2022-11-25T08:29:55;95615.75;;;10.39;61.48
10652;BME280;5374;42.742;23.266;2022-11-25T08:32:42;95602.13;;;10.52;62.30
10652;BME280;5374;42.742;23.266;2022-11-25T08:35:31;95619.78;;;10.63;61.82
10652;BME280;5374;42.742;23.266;2022-11-25T08:38:22;95604.41;;;10.65;60.77
10652;BME280;5374;42.742;23.266;2022-11-25T08:41:11;95612.94;;;10.67;60.01
10652;BME280;5374;42.742;23.266;2022-11-25T08:44:01;95612.53;;;10.75;60.59
10652;BME280;5374;42.742;23.266;2022-11-25T08:46:48;95612.22;;;10.72;59.99
10652;BME280;5374;42.742;23.266;2022-11-25T08:49:35;95613.75;;;10.68;60.21
10652;BME280;5374;42.742;23.266;2022-11-25T08:52:24;95604.06;;;10.40;60.45
10652;BME280;5374;42.742;23.266;2022-11-25T08:55:11;95610.97;;;10.41;61.00
10652;BME280;5374;42.742;23.266;2022-11-25T08:57:58;95605.13;;;10.39;60.59
10652;BME280;5374;42.742;23.266;2022-11-25T09:00:45;95617.66;;;10.43;61.08
10652;BME280;5374;42.742;23.266;2022-11-25T09:03:33;95608.63;;;10.61;61.27
10652;BME280;5374;42.742;23.266;2022-11-25T09:06:22;95598.53;;;10.63;60.08
10652;BME280;5374;42.742;23.266;2022-11-25T09:09:10;95609.25;;;10.68;60.04
10652;BME280;5374;42.742;23.266;2022-11-25T09:11:58;95613.75;;;10.68;59.81
10652;BME280;5374;42.742;23.266;2022-11-25T09:14:45;95622.28;;;10.70;59.91
10652;BME280;5374;42.742;23.266;2022-11-25T09:17:32;95610.03;;;10.69;59.17
10652;BME280;5374;42.742;23.266;2022-11-25T09:20:22;95618.69;;;10.42;60.05
10652;BME280;5374;42.742;23.266;2022-11-25T09:23:09;95610.69;;;10.20;60.29
10652;BME280;5374;42.742;23.266;2022-11-25T09:25:57;95623.53;;;9.95;60.70
10652;BME280;5374;42.742;23.266;2022-11-25T09:28:45;95620.41;;;9.98;61.92
10652;BME280;5374;42.742;23.266;2022-11-25T09:31:32;95617.66;;;10.10;61.70
10652;BME280;5374;42.742;23.266;2022-11-25T09:34:19;95615.59;;;10.28;61.30
10652;BME280;5374;42.742;23.266;2022-11-25T09:37:06;95627.00;;;10.46;60.93
10652;BME280;5374;42.742;23.266;2022-11-25T09:39:53;95620.66;;;10.69;61.26
10652;BME280;5374;42.742;23.266;2022-11-25T09:42:48;95625.63;;;10.82;60.42
10652;BME280;5374;42.742;23.266;2022-11-25T09:46:02;95620.81;;;11.01;59.96
10652;BME280;5374;42.742;23.266;2022-11-25T09:49:31;95620.00;;;11.22;60.58
10652;BME280;5374;42.742;23.266;2022-11-25T09:52:28;95629.69;;;11.33;59.45
10652;BME280;5374;42.742;23.266;2022-11-25T09:55:18;95629.56;;;11.45;58.59
10652;BME280;5374;42.742;23.266;2022-11-25T09:58:18;95616.13;;;11.29;57.79
10652;BME280;5374;42.742;23.266;2022-11-25T10:01:14;95615.38;;;11.12;57.64
10652;BME280;5374;42.742;23.266;2022-11-25T10:04:05;95632.56;;;11.05;57.96
10652;BME280;5374;42.742;23.266;2022-11-25T10:06:57;95628.78;;;11.01;58.32
10652;BME280;5374;42.742;23.266;2022-11-25T10:09:47;95625.66;;;11.04;59.20
10652;BME280;5374;42.742;23.266;2022-11-25T10:12:37;95624.06;;;11.08;58.95
10652;BME280;5374;42.742;23.266;2022-11-25T10:15:33;95625.50;;;11.15;58.16
10652;BME280;5374;42.742;23.266;2022-11-25T10:18:25;95620.06;;;11.27;58.57
10652;BME280;5374;42.742;23.266;2022-11-25T10:21:15;95620.09;;;11.05;58.37
10652;BME280;5374;42.742;23.266;2022-11-25T10:24:03;95624.28;;;11.01;57.98
10652;BME280;5374;42.742;23.266;2022-11-25T10:26:56;95629.91;;;10.83;58.69
10652;BME280;5374;42.742;23.266;2022-11-25T10:29:48;95624.13;;;10.69;58.98
10652;BME280;5374;42.742;23.266;2022-11-25T10:32:45;95630.81;;;10.72;59.40
10652;BME280;5374;42.742;23.266;2022-11-25T10:35:38;95614.88;;;10.72;58.78
10652;BME280;5374;42.742;23.266;2022-11-25T10:38:32;95625.31;;;10.78;59.05
10652;BME280;5374;42.742;23.266;2022-11-25T10:41:25;95621.94;;;10.83;58.49
10652;BME280;5374;42.742;23.266;2022-11-25T10:44:21;95623.88;;;10.71;58.44
10652;BME280;5374;42.742;23.266;2022-11-25T10:47:32;95623.22;;;10.80;58.64
10652;BME280;5374;42.742;23.266;2022-11-25T10:50:26;95632.16;;;10.74;58.64
10652;BME280;5374;42.742;23.266;2022-11-25T10:53:20;95621.22;;;10.71;58.67
10652;BME280;5374;42.742;23.266;2022-11-25T10:56:12;95633.97;;;10.90;58.18
10652;BME280;5374;42.742;23.266;2022-11-25T10:59:12;95637.06;;;11.04;58.08
10652;BME280;5374;42.742;23.266;2022-11-25T11:02:14;95637.75;;;11.16;57.82
10652;BME280;5374;42.742;23.266;2022-11-25T11:05:16;95640.06;;;11.35;58.51
10652;BME280;5374;42.742;23.266;2022-11-25T11:08:16;95654.84;;;11.47;57.88
10652;BME280;5374;42.742;23.266;2022-11-25T11:11:15;95646.69;;;11.32;57.41
10652;BME280;5374;42.742;23.266;2022-11-25T11:14:18;95639.66;;;11.21;58.26
10652;BME280;5374;42.742;23.266;2022-11-25T11:17:22;95641.63;;;11.09;58.93
10652;BME280;5374;42.742;23.266;2022-11-25T11:20:18;95646.50;;;10.95;59.31
10652;BME280;5374;42.742;23.266;2022-11-25T11:23:11;95644.53;;;10.85;58.85
10652;BME280;5374;42.742;23.266;2022-11-25T11:26:00;95649.28;;;10.61;60.42
10652;BME280;5374;42.742;23.266;2022-11-25T11:28:57;95638.09;;;10.59;60.48
10652;BME280;5374;42.742;23.266;2022-11-25T11:31:47;95651.59;;;10.58;60.38
10652;BME280;5374;42.742;23.266;2022-11-25T11:34:48;95654.19;;;10.53;61.38
10652;BME280;5374;42.742;23.266;2022-11-25T11:37:40;95647.66;;;10.60;61.95
10652;BME280;5374;42.742;23.266;2022-11-25T11:40:38;95637.69;;;10.51;61.73
10652;BME280;5374;42.742;23.266;2022-11-25T11:43:51;95642.84;;;10.41;61.13
10652;BME280;5374;42.742;23.266;2022-11-25T11:46:52;95644.78;;;10.28;60.84
10652;BME280;5374;42.742;23.266;2022-11-25T11:50:06;95638.09;;;10.09;61.76
10652;BME280;5374;42.742;23.266;2022-11-25T11:53:09;95641.56;;;10.26;62.25
10652;BME280;5374;42.742;23.266;2022-11-25T11:56:05;95639.63;;;10.22;62.21
10652;BME280;5374;42.742;23.266;2022-11-25T11:59:06;95643.56;;;10.19;61.23
10652;BME280;5374;42.742;23.266;2022-11-25T12:02:11;95659.22;;;10.04;61.44
10652;BME280;5374;42.742;23.266;2022-11-25T12:05:05;95640.25;;;9.95;62.13
10652;BME280;5374;42.742;23.266;2022-11-25T12:08:07;95646.78;;;9.88;62.54
10652;BME280;5374;42.742;23.266;2022-11-25T12:11:00;95649.50;;;9.93;62.59
10652;BME280;5374;42.742;23.266;2022-11-25T12:13:54;95652.16;;;9.93;62.76
10652;BME280;5374;42.742;23.266;2022-11-25T12:16:51;95655.09;;;9.80;62.30
10652;BME280;5374;42.742;23.266;2022-11-25T12:19:48;95647.53;;;9.72;62.72
10652;BME280;5374;42.742;23.266;2022-11-25T12:22:43;95644.00;;;9.66;63.11
10652;BME280;5374;42.742;23.266;2022-11-25T12:25:37;95653.34;;;9.69;63.49
10652;BME280;5374;42.742;23.266;2022-11-25T12:28:31;95660.72;;;9.67;63.07
10652;BME280;5374;42.742;23.266;2022-11-25T12:31:24;95658.22;;;9.77;63.56
10652;BME280;5374;42.742;23.266;2022-11-25T12:34:18;95663.97;;;9.85;63.81
10652;BME280;5374;42.742;23.266;2022-11-25T12:37:11;95653.13;;;9.87;63.40
10652;BME280;5374;42.742;23.266;2022-11-25T12:40:03;95660.34;;;9.91;62.65
10652;BME280;5374;42.742;23.266;2022-11-25T12:42:59;95647.47;;;9.83;62.96
10652;BME280;5374;42.742;23.266;2022-11-25T12:46:00;95652.22;;;9.81;63.44
10652;BME280;5374;42.742;23.266;2022-11-25T12:48:50;95651.25;;;9.87;62.77
10652;BME280;5374;42.742;23.266;2022-11-25T12:51:52;95653.59;;;9.84;62.61
10652;BME280;5374;42.742;23.266;2022-11-25T12:55:04;95653.25;;;9.64;63.41
10652;BME280;5374;42.742;23.266;2022-11-25T12:58:21;95635.38;;;9.59;63.72
10652;BME280;5374;42.742;23.266;2022-11-25T13:01:28;95631.25;;;9.51;63.71
10652;BME280;5374;42.742;23.266;2022-11-25T13:07:46;95642.84;;;9.45;63.74
10652;BME280;5374;42.742;23.266;2022-11-25T13:10:47;95643.66;;;9.46;63.50
10652;BME280;5374;42.742;23.266;2022-11-25T13:13:48;95646.00;;;9.31;63.81
10652;BME280;5374;42.742;23.266;2022-11-25T13:16:40;95647.25;;;9.28;64.39
10652;BME280;5374;42.742;23.266;2022-11-25T13:19:28;95627.97;;;9.16;64.34
10652;BME280;5374;42.742;23.266;2022-11-25T13:22:25;95635.47;;;9.07;64.76
10652;BME280;5374;42.742;23.266;2022-11-25T13:25:21;95631.59;;;8.98;65.14
10652;BME280;5374;42.742;23.266;2022-11-25T13:28:28;95646.09;;;8.96;65.33
10652;BME280;5374;42.742;23.266;2022-11-25T13:31:19;95638.84;;;9.03;65.50
10652;BME280;5374;42.742;23.266;2022-11-25T13:34:25;95643.19;;;9.09;65.06
10652;BME280;5374;42.742;23.266;2022-11-25T13:37:33;95641.28;;;8.93;65.01
10652;BME280;5374;42.742;23.266;2022-11-25T13:40:33;95648.41;;;8.92;65.55
10652;BME280;5374;42.742;23.266;2022-11-25T13:43:22;95646.91;;;8.84;65.16
10652;BME280;5374;42.742;23.266;2022-11-25T13:46:26;95655.25;;;8.65;65.65
10652;BME280;5374;42.742;23.266;2022-11-25T13:49:40;95658.25;;;8.56;65.78
10652;BME280;5374;42.742;23.266;2022-11-25T13:52:33;95659.75;;;8.52;65.73
10652;BME280;5374;42.742;23.266;2022-11-25T13:55:27;95659.63;;;8.59;65.78
10652;BME280;5374;42.742;23.266;2022-11-25T13:58:22;95656.41;;;8.57;65.97
10652;BME280;5374;42.742;23.266;2022-11-25T14:01:23;95657.78;;;8.48;66.18
10652;BME280;5374;42.742;23.266;2022-11-25T14:04:13;95674.16;;;8.56;65.63
10652;BME280;5374;42.742;23.266;2022-11-25T14:07:08;95684.38;;;8.53;65.57
10652;BME280;5374;42.742;23.266;2022-11-25T14:10:10;95666.88;;;8.40;65.37
10652;BME280;5374;42.742;23.266;2022-11-25T14:16:32;95687.38;;;8.33;66.54
10652;BME280;5374;42.742;23.266;2022-11-25T14:19:41;95696.97;;;8.28;66.63
10652;BME280;5374;42.742;23.266;2022-11-25T14:25:55;95695.34;;;8.03;67.43
10652;BME280;5374;42.742;23.266;2022-11-25T14:28:47;95667.81;;;7.81;67.78
10652;BME280;5374;42.742;23.266;2022-11-25T14:31:43;95699.69;;;7.98;67.98
10652;BME280;5374;42.742;23.266;2022-11-25T14:34:32;95696.56;;;7.89;68.07
10652;BME280;5374;42.742;23.266;2022-11-25T14:37:26;95702.69;;;7.89;68.33
10652;BME280;5374;42.742;23.266;2022-11-25T14:40:17;95697.66;;;7.70;69.07
10652;BME280;5374;42.742;23.266;2022-11-25T14:43:12;95676.63;;;7.63;69.50
10652;BME280;5374;42.742;23.266;2022-11-25T14:46:14;95700.41;;;7.63;69.91
10652;BME280;5374;42.742;23.266;2022-11-25T14:49:05;95626.91;;;7.12;70.03
10652;BME280;5374;42.742;23.266;2022-11-25T14:51:52;95709.00;;;7.59;70.32
10652;BME280;5374;42.742;23.266;2022-11-25T14:54:40;95705.63;;;7.51;70.78
10652;BME280;5374;42.742;23.266;2022-11-25T14:57:29;95711.34;;;7.48;71.01
10652;BME280;5374;42.742;23.266;2022-11-25T15:00:20;95707.91;;;7.48;70.83
10652;BME280;5374;42.742;23.266;2022-11-25T15:03:16;95712.94;;;7.38;71.85
10652;BME280;5374;42.742;23.266;2022-11-25T15:06:06;95703.47;;;7.30;72.41
10652;BME280;5374;42.742;23.266;2022-11-25T15:08:55;95704.34;;;7.24;72.61
10652;BME280;5374;42.742;23.266;2022-11-25T15:11:44;95710.09;;;7.21;72.76
10652;BME280;5374;42.742;23.266;2022-11-25T15:14:33;95713.16;;;7.18;72.94
10652;BME280;5374;42.742;23.266;2022-11-25T15:17:27;95714.63;;;7.14;73.17
10652;BME280;5374;42.742;23.266;2022-11-25T15:20:15;95715.94;;;7.05;73.87
10652;BME280;5374;42.742;23.266;2022-11-25T15:23:03;95709.16;;;6.97;74.17
10652;BME280;5374;42.742;23.266;2022-11-25T15:25:51;95718.00;;;7.03;74.17